Main page
METAR-TAF:

METAR-TAF

Airports :

Stockholm Arlanda Airport

Stockholm-Arlanda, Sweden

latitude: 59-39N, longitude: 017-57E, elevation: 38 m

Current weather observation

The report was made 44 minutes ago, at 07:20 UTC
Wind 7 kt from the West/Northwest
Temperature -10°C
Humidity 85%
Pressure 1012 hPa
Visibility 10 km or more
no clouds below 1500 m and no cumulonimbus

METAR: ESSA 200720Z 29007KT CAVOK M10/M12 Q1012 R01L/15//66 R08/15//65 R01R/SNOCLO NOSIG

Time: 09:04 (08:04 UTC)

Forecast

The report was made 2 hours and 34 minutes ago, at 05:30 UTC
Forecast valid from 20 at 06 UTC to 21 at 06 UTC
Wind 7 kt from the West
Visibility 10 km or more
no clouds below 1500 m and no cumulonimbus

TAF: ESSA 200530Z 2006/2106 27007KT CAVOK

Weather observations and forecasts of more than 4000 airports (METAR and TAF reports).

The available stations are represented by yellow and red dots on the map.

Hover mouse over dot to see the name of the station.

Then click to see weather observations and forecasts.

To change the map : click on the green buttons with a black cross to zoom in, on the green button with a dash to zoom out, or on the green arrows for adjacent maps.


METAR-TAF: